Time;durP1;ratioP1;P1;durP2;ratioP2;P2;SDS_P1;SDS_P2;PMS_P1;PMS_P2;Temp;Humidity;BMP_temperature;BMP_pressure;BME280_temperature;BME280_humidity;BME280_pressure;Samples;Min_cycle;Max_cycle;Signal;HPM_P1;HPM_P2
2021/09/29 00:09:42;;;;;;;3.33;1.38;;;14.10;99.90;;;;;;20435399;28;20048;-81
2021/09/29 00:19:43;;;;;;;3.58;1.35;;;14.00;99.90;;;;;;20452693;28;20055;-80
2021/09/29 00:29:44;;;;;;;2.97;1.30;;;14.10;99.90;;;;;;20406203;28;20109;-82
2021/09/29 00:39:45;;;;;;;2.10;1.13;;;14.00;99.90;;;;;;20433513;28;20057;-81
2021/09/29 00:49:47;;;;;;;5.38;1.42;;;13.90;99.90;;;;;;20452667;28;20042;-81
2021/09/29 00:59:49;;;;;;;5.03;1.70;;;13.90;99.90;;;;;;20389871;28;20083;-81
2021/09/29 01:10:29;;;;;;;3.35;1.40;;;13.80;99.90;;;;;;20462606;28;20038;-81
2021/09/29 01:21:02;;;;;;;3.53;1.38;;;13.80;99.90;;;;;;20439310;28;20454;-81
2021/09/29 01:31:05;;;;;;;3.90;1.70;;;13.70;99.90;;;;;;20435380;28;20051;-83
2021/09/29 01:41:07;;;;;;;7.80;1.85;;;13.70;99.90;;;;;;20467075;28;20376;-81
2021/09/29 01:51:09;;;;;;;4.38;1.50;;;13.70;99.90;;;;;;20404428;28;20401;-81
2021/09/29 02:01:10;;;;;;;3.35;1.30;;;13.70;99.90;;;;;;20499238;28;20059;-81
2021/09/29 02:11:12;;;;;;;3.80;1.40;;;13.60;99.90;;;;;;20468439;28;20129;-81
2021/09/29 02:21:14;;;;;;;3.13;1.40;;;13.70;99.90;;;;;;20435133;28;20150;-81
2021/09/29 02:31:16;;;;;;;7.00;1.35;;;13.70;99.90;;;;;;20478807;28;20061;-82
2021/09/29 02:41:19;;;;;;;5.30;1.42;;;13.70;99.90;;;;;;20488604;28;20067;-82
2021/09/29 02:51:20;;;;;;;3.42;1.25;;;13.70;99.90;;;;;;20460614;28;20065;-82
2021/09/29 03:01:21;;;;;;;3.58;1.15;;;13.80;99.90;;;;;;20452821;28;20066;-81
2021/09/29 03:11:22;;;;;;;3.95;1.88;;;13.70;99.90;;;;;;20459043;28;20050;-81
2021/09/29 03:21:23;;;;;;;7.85;1.40;;;13.70;99.90;;;;;;20434567;28;20059;-82
2021/09/29 03:31:25;;;;;;;6.10;1.25;;;13.80;99.90;;;;;;20464623;28;20151;-81
2021/09/29 03:41:28;;;;;;;3.90;1.15;;;13.60;99.90;;;;;;20519499;28;20054;-81
2021/09/29 03:51:29;;;;;;;2.33;1.05;;;13.60;99.90;;;;;;20485163;28;20050;-81
2021/09/29 04:01:30;;;;;;;3.92;1.25;;;13.60;99.90;;;;;;20484358;28;20058;-81
2021/09/29 04:11:33;;;;;;;4.93;1.17;;;13.60;99.90;;;;;;20535088;28;20376;-82
2021/09/29 04:21:48;;;;;;;4.50;0.93;;;13.60;99.90;;;;;;20518073;28;20633;-82
2021/09/29 04:31:49;;;;;;;4.80;1.08;;;13.50;99.90;;;;;;20448828;28;20117;-81
2021/09/29 04:41:50;;;;;;;6.38;1.23;;;13.30;99.90;;;;;;20520472;28;20056;-81
2021/09/29 04:51:53;;;;;;;2.67;0.88;;;13.10;99.90;;;;;;20502575;28;20096;-81
2021/09/29 05:01:54;;;;;;;6.63;1.20;;;13.00;99.90;;;;;;20505794;28;20055;-81
2021/09/29 05:12:12;;;;;;;3.35;1.20;;;12.90;99.90;;;;;;20498536;28;20135;-82
2021/09/29 05:22:13;;;;;;;3.30;1.30;;;12.90;99.90;;;;;;20494570;28;20411;-81
2021/09/29 05:32:16;;;;;;;11.07;5.22;;;13.00;99.90;;;;;;20427747;28;20078;-81
2021/09/29 05:42:17;;;;;;;3.88;1.23;;;13.00;99.90;;;;;;20522776;28;20118;-81
2021/09/29 05:52:18;;;;;;;2.80;1.10;;;12.90;99.90;;;;;;20527378;28;20050;-81
2021/09/29 06:02:19;;;;;;;3.53;1.33;;;12.90;99.90;;;;;;20525565;28;20077;-80
2021/09/29 06:12:20;;;;;;;2.42;0.88;;;13.00;99.90;;;;;;20531935;28;20058;-80
2021/09/29 06:22:22;;;;;;;4.93;1.63;;;12.90;99.90;;;;;;20531242;28;20264;-80
2021/09/29 06:32:23;;;;;;;0.90;0.43;;;12.90;99.90;;;;;;20537643;28;20067;-80
2021/09/29 06:42:25;;;;;;;1.77;0.82;;;13.00;99.90;;;;;;20570168;28;20071;-80
2021/09/29 06:52:26;;;;;;;3.67;1.20;;;13.20;99.90;;;;;;20556928;28;20046;-80
2021/09/29 07:02:29;;;;;;;5.53;1.33;;;13.20;99.90;;;;;;20578355;28;20061;-80
2021/09/29 07:12:30;;;;;;;3.83;0.85;;;13.20;99.90;;;;;;20571930;28;20617;-81
2021/09/29 07:22:32;;;;;;;1.85;0.80;;;13.30;99.90;;;;;;20553637;28;20124;-81
2021/09/29 07:32:34;;;;;;;4.00;0.98;;;13.20;99.90;;;;;;20500882;28;20138;-82
2021/09/29 07:42:37;;;;;;;1.98;0.85;;;13.20;99.90;;;;;;20428840;28;20075;-81
2021/09/29 07:52:38;;;;;;;3.50;0.90;;;13.00;99.90;;;;;;20456783;28;20051;-81
2021/09/29 08:02:43;;;;;;;2.72;1.00;;;12.90;99.90;;;;;;20503830;28;20053;-80
2021/09/29 08:12:46;;;;;;;4.40;1.30;;;12.80;99.90;;;;;;20496062;28;20059;-83
2021/09/29 08:22:54;;;;;;;1.52;0.50;;;12.70;99.90;;;;;;20436110;28;20110;-80
2021/09/29 08:33:01;;;;;;;1.90;0.40;;;12.50;99.90;;;;;;20500688;28;20109;-80
2021/09/29 08:53:30;;;;;;;2.47;0.30;;;12.10;99.90;;;;;;20471737;28;20046;-81
2021/09/29 09:24:19;;;;;;;2.15;0.40;;;12.10;99.90;;;;;;20489920;28;20410;-80
2021/09/29 09:34:25;;;;;;;0.60;0.35;;;12.10;99.90;;;;;;20506838;28;20047;-80
2021/09/29 09:44:33;;;;;;;0.75;0.30;;;12.20;99.90;;;;;;20572723;28;20050;-80
2021/09/29 09:54:40;;;;;;;0.90;0.30;;;12.10;99.90;;;;;;20595206;28;20499;-81
2021/09/29 10:04:42;;;;;;;1.33;0.50;;;12.30;99.90;;;;;;20543917;28;20134;-80
2021/09/29 12:18:20;;;;;;;0.73;0.30;;;13.50;99.90;;;;;;20331254;28;20067;-81
2021/09/29 12:38:37;;;;;;;1.23;0.40;;;14.10;99.90;;;;;;20487652;28;20044;-81
2021/09/29 12:48:42;;;;;;;1.83;1.10;;;15.70;99.90;;;;;;20594649;28;20484;-81
2021/09/29 12:58:43;;;;;;;1.17;0.43;;;15.20;99.90;;;;;;20543062;28;20147;-82
2021/09/29 13:08:44;;;;;;;0.60;0.13;;;14.90;99.90;;;;;;20577131;28;20049;-81
2021/09/29 13:39:17;;;;;;;1.25;0.50;;;14.90;99.90;;;;;;20526591;28;20150;-80
2021/09/29 13:49:20;;;;;;;2.08;0.43;;;15.50;99.90;;;;;;20555276;28;20530;-82
2021/09/29 14:30:10;;;;;;;1.45;0.30;;;12.30;99.90;;;;;;20524537;28;20054;-82
2021/09/29 14:40:29;;;;;;;1.30;0.30;;;12.50;99.90;;;;;;21059234;27;20659;-45
2021/09/29 14:50:30;;;;;;;0.75;0.10;;;12.60;99.90;;;;;;20998666;27;20448;-44
2021/09/29 15:00:33;;;;;;;1.20;0.35;;;12.30;99.90;;;;;;21056452;27;20040;-44
2021/09/29 15:10:34;;;;;;;0.70;0.25;;;11.70;99.90;;;;;;21059580;27;20386;-45
2021/09/29 16:01:07;;;;;;;1.00;0.40;;;11.10;99.90;;;;;;20985808;27;20138;-44
2021/09/29 16:31:55;;;;;;;0.85;0.40;;;11.40;99.90;;;;;;20920053;28;20514;-44
2021/09/29 16:41:56;;;;;;;1.58;1.02;;;11.40;99.90;;;;;;20908844;28;20379;-44
2021/09/29 16:52:07;;;;;;;1.00;0.20;;;11.40;99.90;;;;;;20907437;28;20571;-44
2021/09/29 17:02:11;;;;;;;1.25;0.35;;;11.50;99.90;;;;;;20903999;28;20040;-44
2021/09/29 17:12:16;;;;;;;1.38;0.32;;;11.60;99.90;;;;;;20888255;28;20510;-44
2021/09/29 17:22:17;;;;;;;0.63;0.20;;;11.60;99.90;;;;;;20891395;28;20131;-45
2021/09/29 17:32:54;;;;;;;0.68;0.20;;;11.00;99.90;;;;;;20903515;28;20534;-44
2021/09/29 17:53:04;;;;;;;1.38;0.38;;;10.70;99.90;;;;;;20886790;28;20105;-44
2021/09/29 18:03:09;;;;;;;2.53;0.88;;;10.60;99.90;;;;;;20894248;28;20095;-44
2021/09/29 18:13:13;;;;;;;2.78;0.90;;;10.70;99.90;;;;;;20907957;27;20591;-44
2021/09/29 18:23:15;;;;;;;2.40;0.73;;;10.60;99.90;;;;;;20894283;28;20071;-44
2021/09/29 18:33:22;;;;;;;1.77;0.50;;;10.70;99.90;;;;;;20894724;28;20084;-45
2021/09/29 18:43:26;;;;;;;2.42;0.38;;;10.70;99.90;;;;;;20887830;28;20664;-44
2021/09/29 18:53:31;;;;;;;0.88;0.20;;;10.60;99.90;;;;;;20894180;28;20505;-44
2021/09/29 19:14:02;;;;;;;5.50;0.63;;;10.50;99.90;;;;;;20840253;28;20511;-45
2021/09/29 19:24:04;;;;;;;1.48;0.52;;;10.50;99.90;;;;;;20901050;28;20243;-44
2021/09/29 19:34:06;;;;;;;2.30;0.90;;;10.50;99.90;;;;;;20900978;28;20057;-44
2021/09/29 19:44:09;;;;;;;0.70;0.30;;;10.30;99.90;;;;;;20911253;28;20094;-44
2021/09/29 20:15:10;;;;;;;0.32;0.30;;;10.30;99.90;;;;;;20865291;27;20682;-44
2021/09/29 20:25:16;;;;;;;2.08;0.40;;;10.60;99.90;;;;;;20892917;28;20044;-44
2021/09/29 20:45:27;;;;;;;2.97;0.38;;;10.30;99.90;;;;;;20903120;28;20050;-44
2021/09/29 20:55:29;;;;;;;0.93;0.40;;;10.30;99.90;;;;;;20900316;28;20298;-44
2021/09/29 21:05:30;;;;;;;1.63;0.30;;;10.50;99.90;;;;;;20894738;28;20063;-44
2021/09/29 21:15:38;;;;;;;3.08;0.70;;;10.50;99.90;;;;;;20902677;28;20127;-44
2021/09/29 21:25:41;;;;;;;1.20;0.32;;;10.40;99.90;;;;;;20900439;28;20051;-44
2021/09/29 21:35:43;;;;;;;1.20;0.20;;;10.40;99.90;;;;;;20850496;28;20782;-44
2021/09/29 23:39:27;;;;;;;0.80;0.17;;;10.10;99.90;;;;;;20904706;28;20232;-44
2021/09/29 23:49:28;;;;;;;0.20;0.20;;;10.00;99.90;;;;;;20904788;27;20415;-44
2021/09/29 23:59:29;;;;;;;6.25;0.30;;;9.90;99.90;;;;;;20885329;28;20124;-44
